Current Conditions

Updated: 30-Jan-2015 7:22am  
Summary / Temperature Wind Rain






Feels like: 49°F

1-hour difference
0.6°F 0.6°F colder than last hour.

24-hour difference
1.3°F1.3°F colder than yesterday at this time.

  Today Yesterday
High: 55.2°F
12:14am
62.0°F
2:55pm
Low: 48.7°F
7:08am
49.4°F
3:06am
Calm W
0.0
Gust:  0.0 mph
0 Beaufort - Calm

Today: 1.2 - 12:42am
Month: 8.1 mph - Jan 4
Rain Today: 0.00 in
Current Rate (/hr): 0.00 in
Max Rate (/hr):
Rain Yesterday: 0.00 in
Storm Rain: 0.00 in
This Month: 0.19 in
Season Total: 3.20 in
Last Rain Event: 2 days ago
Humidity / Barometer Sun / Moon
Humidity: 98 Increased 1.0% in the last hour.
Dew Point: 48.2°F Decreased 0.4°F in the last hour.
Barometer: 29.997 inHg  
Baro Trend: Steady
Sunrise: 6:58am
Sunset: 5:19pm
Moonrise: 2:05pm
Moonset: 3:31am
Sky Conditions UV Index
Sky: Overcast
Visibility: less than 1/4 mile
Clouds: Overcast @ 100 ft
Current: 0.0  None 
Friday: 2.8  Low 
Saturday: 2.6  Low 
Air Quality Fire Danger
PM 2.5 Unhealthy for Sensitive Groups
Ozone Good
Current: 216  Extreme 

Local Alerts Local Forecast
Local NWS Alerts
Today

Chance of
Precip
High 60
Tonight

Chance of
Precip
Low 42
Sat

Partly
Sunny
High 59
Sat night

Areas of
Fog
Low 40
Sun

Mostly
Sunny
High 62
Sun night

Areas of
Fog
Low 43
Mon

Partly
Sunny
High 61

Local Radar Local Satellite Neighborhood Cam Sky Cam
Local Radar Local Satellite Neighborhood Cam Sky Cam


Nearby METAR Reports

KPTV - Porterville, California, USA
Distance from station: SSW 4mi, 7km
Updated: Fri, 30-Jan-2015 7:15am PST
Overcast
Overcast
 Wind from calm
Wind: Calm
Temperature: 46°F , 8°C
Dew Point: 45°F , 7°C
Humidity: 93%
Barometer: 30.01 inHg , 1016.3 hPa
Clouds: Overcast
Visibility: less than 1/4 mile , 2 km
Cloud details: Overcast 100 ft
2015/01/30 15:15 KPTV 301515Z AUTO 00000KT M1/4SM OVC001 08/07 A3001 RMK AO1
KVIS - Visalia, California, USA
Distance from station: NW 27mi, 43km
Updated: Fri, 30-Jan-2015 7:15am PST
Overcast
Overcast
 Wind from calm
Wind: Calm
Temperature: 46°F , 8°C
Dew Point: 41°F , 5°C
Humidity: 82%
Barometer: 30.01 inHg , 1016.3 hPa
Clouds: Overcast
Visibility: less than 1/4 mile , 2 km
Cloud details: Overcast 100 ft
2015/01/30 15:15 KVIS 301515Z AUTO 00000KT M1/4SM OVC001 08/05 A3001 RMK AO1

Metar display script from Saratoga-Weather.org



Visitor Map

Locations of visitors to this page